Time,TemperatureF,DewpointF,PressureIn,WindDirection,WindDirectionDegrees,WindSpeedMPH,WindSpeedGustMPH,Humidity,HourlyPrecipIn,Conditions,Clouds,dailyrainin,SoftwareType,DateUTC
2013-05-17 00:01:00,72.7,55.6,30.00,SSE,154,3.1,4.5,55,0.00,,SCT060,0.00,VWS V14.00,2013-05-17 04:01:00,
2013-05-17 00:02:00,72.7,55.6,30.00,SSE,156,3.6,4.5,55,0.00,,SCT060,0.00,VWS V14.00,2013-05-17 04:02:00,
2013-05-17 00:07:00,72.7,56.1,30.00,SSE,148,3.1,4.5,56,0.00,,SCT060,0.00,VWS V14.00,2013-05-17 04:07:00,
2013-05-17 00:12:00,72.9,56.3,30.00,SSE,150,4.0,4.0,56,0.00,,CLR,0.00,VWS V14.00,2013-05-17 04:12:00,
2013-05-17 00:17:00,72.7,56.1,30.00,SE,138,3.6,4.0,56,0.00,,CLR,0.00,VWS V14.00,2013-05-17 04:17:00,
2013-05-17 00:22:00,72.7,56.6,30.00,SE,138,0.0,4.0,57,0.00,,CLR,0.00,VWS V14.00,2013-05-17 04:22:00,
2013-05-17 00:27:00,72.7,57.1,30.00,SE,145,3.1,3.1,58,0.00,,CLR,0.00,VWS V14.00,2013-05-17 04:27:00,
2013-05-17 00:32:00,72.7,57.1,30.00,SE,136,0.0,3.6,58,0.00,,CLR,0.00,VWS V14.00,2013-05-17 04:32:00,
2013-05-17 00:37:00,72.7,57.5,30.00,SSE,150,0.0,3.6,59,0.00,,CLR,0.00,VWS V14.00,2013-05-17 04:37:00,
2013-05-17 00:42:00,72.5,56.9,30.00,SSE,149,0.0,0.0,58,0.00,,CLR,0.00,VWS V14.00,2013-05-17 04:42:00,
2013-05-17 00:47:00,72.3,56.7,30.00,SSE,153,2.2,2.7,58,0.00,,CLR,0.00,VWS V14.00,2013-05-17 04:47:00,
2013-05-17 00:52:00,72.1,57.0,30.00,SSE,151,2.7,3.6,59,0.00,,CLR,0.00,VWS V14.00,2013-05-17 04:52:00,
2013-05-17 00:57:00,72.0,56.9,30.00,SE,130,0.0,0.0,59,0.00,,CLR,0.00,VWS V14.00,2013-05-17 04:57:00,
2013-05-17 01:02:00,72.0,57.3,30.00,ESE,122,0.0,0.0,60,0.00,,CLR,0.00,VWS V14.00,2013-05-17 05:02:00,
2013-05-17 01:07:00,71.8,57.6,30.00,SE,140,3.6,3.6,61,0.00,,CLR,0.00,VWS V14.00,2013-05-17 05:07:00,
2013-05-17 01:12:00,71.6,57.5,30.00,SE,135,0.0,0.0,61,0.00,,CLR,0.00,VWS V14.00,2013-05-17 05:12:00,
2013-05-17 01:17:00,71.4,58.2,30.00,SSE,147,3.1,4.9,63,0.00,,CLR,0.00,VWS V14.00,2013-05-17 05:17:00,
2013-05-17 01:22:00,71.2,58.0,29.97,SE,144,2.7,4.9,63,0.00,,CLR,0.00,VWS V14.00,2013-05-17 05:22:00,
2013-05-17 01:27:00,71.2,58.5,29.97,SE,142,2.2,3.6,64,0.00,,CLR,0.00,VWS V14.00,2013-05-17 05:27:00,
2013-05-17 01:32:00,71.1,58.3,29.97,SSE,149,4.0,4.0,64,0.00,,CLR,0.00,VWS V14.00,2013-05-17 05:32:00,
2013-05-17 01:37:00,71.1,58.3,29.97,SE,140,0.0,4.0,64,0.00,,CLR,0.00,VWS V14.00,2013-05-17 05:37:00,
2013-05-17 01:42:00,70.9,58.5,29.97,SSE,155,0.0,0.0,65,0.00,,CLR,0.00,VWS V14.00,2013-05-17 05:42:00,
2013-05-17 01:47:00,70.9,58.5,29.97,ESE,118,0.0,0.0,65,0.00,,CLR,0.00,VWS V14.00,2013-05-17 05:47:00,
2013-05-17 01:52:00,70.9,58.5,29.97,SE,140,0.0,0.0,65,0.00,,CLR,0.00,VWS V14.00,2013-05-17 05:52:00,
2013-05-17 01:57:00,70.7,58.8,29.97,SE,141,0.0,0.0,66,0.00,,CLR,0.00,VWS V14.00,2013-05-17 05:57:00,
2013-05-17 02:02:00,70.7,58.8,29.97,ESE,102,0.0,0.0,66,0.00,,CLR,0.00,VWS V14.00,2013-05-17 06:02:00,
2013-05-17 02:07:00,70.7,59.2,29.97,ESE,107,0.0,0.0,67,0.00,,CLR,0.00,VWS V14.00,2013-05-17 06:07:00,
2013-05-17 02:12:00,70.7,59.6,29.97,East,90,0.0,0.0,68,0.00,,CLR,0.00,VWS V14.00,2013-05-17 06:12:00,
2013-05-17 02:17:00,70.5,59.5,29.97,SE,127,0.0,0.0,68,0.00,,CLR,0.00,VWS V14.00,2013-05-17 06:17:00,
2013-05-17 02:22:00,70.3,59.3,29.97,ESE,105,0.0,0.0,68,0.00,,CLR,0.00,VWS V14.00,2013-05-17 06:22:00,
2013-05-17 02:27:00,70.3,59.3,29.97,ESE,103,0.0,0.0,68,0.00,,CLR,0.00,VWS V14.00,2013-05-17 06:27:00,
2013-05-17 02:32:00,70.3,59.3,29.97,ESE,114,0.0,0.0,68,0.00,,CLR,0.00,VWS V14.00,2013-05-17 06:32:00,
2013-05-17 02:37:00,70.2,59.5,29.97,SE,139,0.0,0.0,69,0.00,,CLR,0.00,VWS V14.00,2013-05-17 06:37:00,
2013-05-17 02:42:00,70.2,59.5,29.97,SE,139,0.0,0.0,69,0.00,,CLR,0.00,VWS V14.00,2013-05-17 06:42:00,
2013-05-17 02:47:00,70.0,59.3,29.97,SE,139,0.0,0.0,69,0.00,,CLR,0.00,VWS V14.00,2013-05-17 06:47:00,
2013-05-17 02:53:00,69.8,59.2,29.97,SE,139,0.0,0.0,69,0.00,,CLR,0.00,VWS V14.00,2013-05-17 06:53:00,
2013-05-17 02:58:00,69.4,58.8,29.97,SE,139,0.0,0.0,69,0.00,,CLR,0.00,VWS V14.00,2013-05-17 06:58:00,
2013-05-17 03:02:00,69.1,58.5,29.97,SE,139,0.0,0.0,69,0.00,,CLR,0.00,VWS V14.00,2013-05-17 07:02:00,
2013-05-17 03:07:00,68.9,58.7,29.97,SE,139,0.0,0.0,70,0.00,,CLR,0.00,VWS V14.00,2013-05-17 07:07:00,
2013-05-17 03:13:00,68.5,58.4,29.97,SE,139,0.0,0.0,70,0.00,,CLR,0.00,VWS V14.00,2013-05-17 07:13:00,
2013-05-17 03:18:00,68.4,58.2,29.97,SE,139,0.0,0.0,70,0.00,,CLR,0.00,VWS V14.00,2013-05-17 07:18:00,
2013-05-17 03:23:00,68.2,58.0,29.97,SE,139,0.0,0.0,70,0.00,,CLR,0.00,VWS V14.00,2013-05-17 07:23:00,
2013-05-17 03:28:00,68.0,57.9,29.97,SE,139,0.0,0.0,70,0.00,,CLR,0.00,VWS V14.00,2013-05-17 07:28:00,
2013-05-17 03:33:00,68.0,58.3,29.97,SE,139,0.0,0.0,71,0.00,,CLR,0.00,VWS V14.00,2013-05-17 07:33:00,
2013-05-17 03:38:00,68.0,58.3,29.97,SE,139,0.0,0.0,71,0.00,,CLR,0.00,VWS V14.00,2013-05-17 07:38:00,
2013-05-17 03:43:00,68.2,58.8,29.97,ESE,116,0.0,0.0,72,0.00,,CLR,0.00,VWS V14.00,2013-05-17 07:43:00,
2013-05-17 03:48:00,68.4,59.0,29.97,ESE,122,0.0,0.0,72,0.00,,CLR,0.00,VWS V14.00,2013-05-17 07:48:00,
2013-05-17 03:53:00,68.4,59.0,29.97,SE,126,0.0,0.0,72,0.00,,CLR,0.00,VWS V14.00,2013-05-17 07:53:00,
2013-05-17 03:58:00,68.4,59.4,29.97,SE,126,0.0,0.0,73,0.00,,CLR,0.00,VWS V14.00,2013-05-17 07:58:00,
2013-05-17 04:03:00,68.4,59.4,29.97,SE,126,0.0,0.0,73,0.00,,CLR,0.00,VWS V14.00,2013-05-17 08:03:00,
2013-05-17 04:08:00,68.4,59.8,29.97,East,97,0.0,0.0,74,0.00,,CLR,0.00,VWS V14.00,2013-05-17 08:08:00,
2013-05-17 04:13:00,68.2,59.6,29.97,ESE,106,0.0,0.0,74,0.00,,CLR,0.00,VWS V14.00,2013-05-17 08:13:00,
2013-05-17 04:18:00,68.2,59.6,29.97,ESE,105,0.0,0.0,74,0.00,,CLR,0.00,VWS V14.00,2013-05-17 08:18:00,
2013-05-17 04:23:00,68.0,59.4,29.97,ESE,105,0.0,0.0,74,0.00,,CLR,0.00,VWS V14.00,2013-05-17 08:23:00,
2013-05-17 04:28:00,67.8,59.6,29.97,ESE,105,0.0,0.0,75,0.00,,CLR,0.00,VWS V14.00,2013-05-17 08:28:00,
2013-05-17 04:33:00,67.8,60.0,29.97,ESE,123,0.0,0.0,76,0.00,,CLR,0.00,VWS V14.00,2013-05-17 08:33:00,
2013-05-17 04:38:00,67.8,60.0,29.97,ESE,123,0.0,0.0,76,0.00,,CLR,0.00,VWS V14.00,2013-05-17 08:38:00,
2013-05-17 04:43:00,67.6,59.8,29.97,ESE,102,0.0,0.0,76,0.00,,CLR,0.00,VWS V14.00,2013-05-17 08:43:00,
2013-05-17 04:48:00,67.5,59.3,29.97,ESE,102,0.0,0.0,75,0.00,,CLR,0.00,VWS V14.00,2013-05-17 08:48:00,
2013-05-17 04:53:00,67.3,59.5,29.97,ESE,102,0.0,0.0,76,0.00,,CLR,0.00,VWS V14.00,2013-05-17 08:53:00,
2013-05-17 04:58:00,67.3,59.5,29.97,ESE,102,0.0,0.0,76,0.00,,CLR,0.00,VWS V14.00,2013-05-17 08:58:00,
2013-05-17 05:03:00,66.9,59.1,29.97,ESE,102,0.0,0.0,76,0.00,,CLR,0.00,VWS V14.00,2013-05-17 09:03:00,
2013-05-17 05:08:00,66.6,58.8,29.97,ESE,102,0.0,0.0,76,0.00,,CLR,0.00,VWS V14.00,2013-05-17 09:08:00,
2013-05-17 05:13:00,66.4,58.6,29.97,ESE,102,0.0,0.0,76,0.00,,CLR,0.00,VWS V14.00,2013-05-17 09:13:00,
2013-05-17 05:18:00,66.4,58.6,29.97,ESE,102,0.0,0.0,76,0.00,,CLR,0.00,VWS V14.00,2013-05-17 09:18:00,
2013-05-17 05:23:00,66.2,58.4,29.97,ESE,102,0.0,0.0,76,0.00,,CLR,0.00,VWS V14.00,2013-05-17 09:23:00,
2013-05-17 05:28:00,66.0,58.6,29.97,ESE,102,0.0,0.0,77,0.00,,CLR,0.00,VWS V14.00,2013-05-17 09:28:00,
2013-05-17 05:33:00,65.8,58.4,29.97,ESE,102,0.0,0.0,77,0.00,,CLR,0.00,VWS V14.00,2013-05-17 09:33:00,
2013-05-17 05:38:00,65.5,58.1,29.97,ESE,102,0.0,0.0,77,0.00,,CLR,0.00,VWS V14.00,2013-05-17 09:38:00,
2013-05-17 05:43:00,65.3,57.9,29.97,ESE,102,0.0,0.0,77,0.00,,CLR,0.00,VWS V14.00,2013-05-17 09:43:00,
2013-05-17 05:48:00,65.3,58.3,29.97,ESE,102,0.0,0.0,78,0.00,,CLR,0.00,VWS V14.00,2013-05-17 09:48:00,
2013-05-17 05:53:00,65.1,58.1,29.97,ESE,102,0.0,0.0,78,0.00,,CLR,0.00,VWS V14.00,2013-05-17 09:53:00,
2013-05-17 05:58:00,65.1,58.1,29.97,ESE,102,0.0,0.0,78,0.00,,CLR,0.00,VWS V14.00,2013-05-17 09:58:00,
2013-05-17 06:03:00,64.9,57.9,29.97,ESE,102,0.0,0.0,78,0.00,,CLR,0.00,VWS V14.00,2013-05-17 10:03:00,
2013-05-17 06:08:00,64.8,57.8,29.97,ESE,102,0.0,0.0,78,0.00,,CLR,0.00,VWS V14.00,2013-05-17 10:08:00,
2013-05-17 06:13:00,64.6,57.6,29.97,ESE,102,0.0,0.0,78,0.00,,CLR,0.00,VWS V14.00,2013-05-17 10:13:00,
2013-05-17 06:18:00,64.4,57.4,29.97,ESE,102,0.0,0.0,78,0.00,,CLR,0.00,VWS V14.00,2013-05-17 10:18:00,
2013-05-17 06:23:00,64.4,57.4,30.00,ESE,102,0.0,0.0,78,0.00,,CLR,0.00,VWS V14.00,2013-05-17 10:23:00,
2013-05-17 06:28:00,64.2,57.6,30.00,ESE,102,0.0,0.0,79,0.00,,CLR,0.00,VWS V14.00,2013-05-17 10:28:00,
2013-05-17 06:33:00,64.0,57.4,30.00,ESE,102,0.0,0.0,79,0.00,,CLR,0.00,VWS V14.00,2013-05-17 10:33:00,
2013-05-17 06:38:00,64.0,57.8,30.00,ESE,102,0.0,0.0,80,0.00,,CLR,0.00,VWS V14.00,2013-05-17 10:38:00,
2013-05-17 06:43:00,64.0,57.8,30.00,ESE,102,0.0,0.0,80,0.00,,CLR,0.00,VWS V14.00,2013-05-17 10:43:00,
2013-05-17 06:48:00,64.0,57.8,30.00,ESE,102,0.0,0.0,80,0.00,,CLR,0.00,VWS V14.00,2013-05-17 10:48:00,
2013-05-17 06:53:00,63.9,57.6,30.00,ESE,102,0.0,0.0,80,0.00,,CLR,0.00,VWS V14.00,2013-05-17 10:53:00,
2013-05-17 06:58:00,63.9,57.6,30.00,ESE,102,0.0,0.0,80,0.00,,CLR,0.00,VWS V14.00,2013-05-17 10:58:00,
2013-05-17 07:03:00,64.0,57.8,30.00,ESE,102,0.0,0.0,80,0.00,,CLR,0.00,VWS V14.00,2013-05-17 11:03:00,
2013-05-17 07:08:00,64.2,58.3,30.00,ESE,103,0.0,0.0,81,0.00,,CLR,0.00,VWS V14.00,2013-05-17 11:08:00,
2013-05-17 07:13:00,64.4,58.5,30.00,ESE,102,0.0,0.0,81,0.00,,CLR,0.00,VWS V14.00,2013-05-17 11:13:00,
2013-05-17 07:18:00,64.6,58.6,30.00,ESE,102,0.0,0.0,81,0.00,,CLR,0.00,VWS V14.00,2013-05-17 11:18:00,
2013-05-17 07:23:00,64.9,59.0,30.00,ESE,102,0.0,0.0,81,0.00,,CLR,0.00,VWS V14.00,2013-05-17 11:23:00,
2013-05-17 07:28:00,65.3,59.7,30.00,ESE,102,0.0,0.0,82,0.00,,CLR,0.00,VWS V14.00,2013-05-17 11:28:00,
2013-05-17 07:33:00,65.5,59.8,30.00,ESE,102,0.0,0.0,82,0.00,,CLR,0.00,VWS V14.00,2013-05-17 11:33:00,
2013-05-17 07:38:00,65.7,60.0,30.00,ESE,102,0.0,0.0,82,0.00,,CLR,0.00,VWS V14.00,2013-05-17 11:38:00,
2013-05-17 07:43:00,66.0,60.4,30.00,ESE,102,0.0,0.0,82,0.00,,CLR,0.00,VWS V14.00,2013-05-17 11:43:00,
2013-05-17 07:48:00,66.2,60.5,30.00,ESE,102,0.0,0.0,82,0.00,,CLR,0.00,VWS V14.00,2013-05-17 11:48:00,
2013-05-17 07:53:00,66.6,60.9,30.00,ESE,102,0.0,0.0,82,0.00,,CLR,0.00,VWS V14.00,2013-05-17 11:53:00,
2013-05-17 07:58:00,66.9,61.2,30.00,ESE,102,0.0,0.0,82,0.00,,CLR,0.00,VWS V14.00,2013-05-17 11:58:00,
2013-05-17 08:03:00,67.3,61.6,30.00,ESE,102,0.0,0.0,82,0.00,,CLR,0.00,VWS V14.00,2013-05-17 12:03:00,
2013-05-17 08:08:00,67.6,62.0,30.00,ESE,104,0.0,0.0,82,0.00,,CLR,0.00,VWS V14.00,2013-05-17 12:08:00,
2013-05-17 08:13:00,68.2,62.5,30.00,ESE,105,0.0,0.0,82,0.00,,CLR,0.00,VWS V14.00,2013-05-17 12:13:00,
2013-05-17 08:19:00,69.1,63.4,30.00,SE,124,0.0,0.0,82,0.00,,CLR,0.00,VWS V14.00,2013-05-17 12:19:00,
2013-05-17 08:24:00,69.8,63.7,30.00,SE,129,0.0,0.0,81,0.00,,CLR,0.00,VWS V14.00,2013-05-17 12:24:00,
2013-05-17 08:29:00,70.3,63.9,30.00,South,180,0.0,6.3,80,0.00,,CLR,0.00,VWS V14.00,2013-05-17 12:29:00,
2013-05-17 08:34:00,71.2,64.4,30.00,South,173,0.0,6.3,79,0.00,,CLR,0.00,VWS V14.00,2013-05-17 12:34:00,
2013-05-17 08:39:00,72.1,64.5,30.00,SSE,167,2.7,6.3,77,0.00,,CLR,0.00,VWS V14.00,2013-05-17 12:39:00,
2013-05-17 08:44:00,72.9,64.9,30.00,SSE,147,0.0,3.6,76,0.00,,CLR,0.00,VWS V14.00,2013-05-17 12:44:00,
2013-05-17 08:49:00,73.8,65.0,30.00,SE,129,0.0,3.6,74,0.00,,CLR,0.00,VWS V14.00,2013-05-17 12:49:00,
2013-05-17 08:54:00,74.7,65.4,30.00,South,185,3.1,4.0,73,0.00,,CLR,0.00,VWS V14.00,2013-05-17 12:54:00,
2013-05-17 08:59:00,75.4,65.3,30.00,South,186,2.7,4.0,71,0.00,,CLR,0.00,VWS V14.00,2013-05-17 12:59:00,
2013-05-17 09:04:00,76.3,65.4,30.00,SSE,156,2.2,5.8,69,0.00,,CLR,0.00,VWS V14.00,2013-05-17 13:04:00,
2013-05-17 09:09:00,77.0,65.6,30.00,SSW,212,2.7,5.8,68,0.00,,CLR,0.00,VWS V14.00,2013-05-17 13:09:00,
2013-05-17 09:14:00,77.7,65.5,30.00,SSE,161,2.7,4.9,66,0.00,,CLR,0.00,VWS V14.00,2013-05-17 13:14:00,
2013-05-17 09:19:00,78.4,65.7,30.00,SSW,193,2.7,5.4,65,0.00,,CLR,0.00,VWS V14.00,2013-05-17 13:19:00,
2013-05-17 09:24:00,79.2,65.5,30.00,SE,124,2.7,5.4,63,0.00,,CLR,0.00,VWS V14.00,2013-05-17 13:24:00,
2013-05-17 09:29:00,79.7,64.6,30.00,SSE,151,4.9,6.7,60,0.00,,CLR,0.00,VWS V14.00,2013-05-17 13:29:00,
2013-05-17 09:34:00,80.1,61.9,30.00,SSE,151,4.5,6.7,54,0.00,,CLR,0.00,VWS V14.00,2013-05-17 13:34:00,
2013-05-17 09:39:00,80.8,62.1,30.03,South,187,3.1,6.7,53,0.00,,CLR,0.00,VWS V14.00,2013-05-17 13:39:00,
2013-05-17 09:44:00,81.3,62.6,30.03,SE,141,2.7,5.8,53,0.00,,CLR,0.00,VWS V14.00,2013-05-17 13:44:00,
2013-05-17 09:49:00,82.2,62.9,30.03,ESE,122,5.4,5.8,52,0.00,,CLR,0.00,VWS V14.00,2013-05-17 13:49:00,
2013-05-17 09:54:00,82.9,62.4,30.03,SSE,160,3.1,5.8,50,0.00,,CLR,0.00,VWS V14.00,2013-05-17 13:54:00,
2013-05-17 09:59:00,83.3,61.6,30.03,ESE,109,4.0,5.8,48,0.00,,CLR,0.00,VWS V14.00,2013-05-17 13:59:00,
2013-05-17 10:04:00,83.7,61.3,30.03,SSE,152,2.7,7.6,47,0.00,,CLR,0.00,VWS V14.00,2013-05-17 14:04:00,
2013-05-17 10:09:00,84.4,62.0,30.03,SSE,154,0.0,7.6,47,0.00,,CLR,0.00,VWS V14.00,2013-05-17 14:09:00,
2013-05-17 10:14:00,84.6,60.9,30.03,SE,133,2.7,5.8,45,0.00,,CLR,0.00,VWS V14.00,2013-05-17 14:14:00,
2013-05-17 10:19:00,84.9,61.8,30.03,SSW,192,4.9,5.8,46,0.00,,CLR,0.00,VWS V14.00,2013-05-17 14:19:00,
2013-05-17 10:24:00,85.3,61.6,30.03,West,280,3.6,5.8,45,0.00,,CLR,0.00,VWS V14.00,2013-05-17 14:24:00,
2013-05-17 10:29:00,85.8,61.4,30.03,SE,138,0.0,4.5,44,0.00,,CLR,0.00,VWS V14.00,2013-05-17 14:29:00,
2013-05-17 10:34:00,86.2,59.7,30.03,ESE,120,2.7,6.3,41,0.00,,CLR,0.00,VWS V14.00,2013-05-17 14:34:00,
2013-05-17 10:39:00,86.5,60.1,30.03,West,273,0.0,6.3,41,0.00,,CLR,0.00,VWS V14.00,2013-05-17 14:39:00,
2013-05-17 10:44:00,86.7,59.5,30.03,SSW,205,3.6,3.6,40,0.00,,CLR,0.00,VWS V14.00,2013-05-17 14:44:00,
2013-05-17 10:49:00,87.4,59.5,30.03,South,171,3.6,5.8,39,0.00,,CLR,0.00,VWS V14.00,2013-05-17 14:49:00,
2013-05-17 10:54:00,87.8,59.1,30.03,SW,227,5.4,6.3,38,0.00,,CLR,0.00,VWS V14.00,2013-05-17 14:54:00,
2013-05-17 10:59:00,88.0,60.0,30.03,WSW,246,0.0,5.4,39,0.00,,CLR,0.00,VWS V14.00,2013-05-17 14:59:00,
2013-05-17 11:04:00,88.3,59.5,30.03,SSE,159,2.2,5.4,38,0.00,,CLR,0.00,VWS V14.00,2013-05-17 15:04:00,
2013-05-17 11:09:00,88.5,59.7,30.03,WNW,288,0.0,5.4,38,0.00,,CLR,0.00,VWS V14.00,2013-05-17 15:09:00,
2013-05-17 11:14:00,87.8,56.0,30.03,West,273,4.0,6.3,34,0.00,,CLR,0.00,VWS V14.00,2013-05-17 15:14:00,
2013-05-17 11:19:00,85.8,53.4,30.03,NW,307,5.8,6.3,33,0.00,,CLR,0.00,VWS V14.00,2013-05-17 15:19:00,
2013-05-17 11:24:00,83.7,53.9,30.03,WNW,289,2.7,6.3,36,0.00,,CLR,0.00,VWS V14.00,2013-05-17 15:24:00,
2013-05-17 11:29:00,83.5,55.9,30.03,SSE,165,0.0,0.0,39,0.00,,CLR,0.00,VWS V14.00,2013-05-17 15:29:00,
2013-05-17 11:34:00,85.8,58.7,30.03,SSE,155,0.0,0.0,40,0.00,,CLR,0.00,VWS V14.00,2013-05-17 15:34:00,
2013-05-17 11:39:00,87.6,59.6,30.03,North,357,0.0,0.0,39,0.00,,CLR,0.00,VWS V14.00,2013-05-17 15:39:00,
2013-05-17 11:44:00,89.1,59.4,30.03,SSE,150,4.9,5.4,37,0.00,,CLR,0.00,VWS V14.00,2013-05-17 15:44:00,
2013-05-17 11:49:00,89.8,57.7,30.03,SE,141,2.7,5.4,34,0.00,,CLR,0.00,VWS V14.00,2013-05-17 15:49:00,
2013-05-17 11:54:00,89.8,56.0,30.03,NNW,331,0.0,5.4,32,0.00,,CLR,0.00,VWS V14.00,2013-05-17 15:54:00,
2013-05-17 11:59:00,88.0,54.5,30.03,SSE,163,0.0,4.9,32,0.00,,CLR,0.00,VWS V14.00,2013-05-17 15:59:00,
2013-05-17 12:04:00,86.7,54.2,30.03,NNW,343,0.0,4.9,33,0.00,,CLR,0.00,VWS V14.00,2013-05-17 16:04:00,
2013-05-17 12:09:00,84.7,52.5,30.03,West,281,0.0,4.9,33,0.00,,CLR,0.00,VWS V14.00,2013-05-17 16:09:00,
2013-05-17 12:14:00,83.8,53.3,30.03,West,281,0.0,0.0,35,0.00,,CLR,0.00,VWS V14.00,2013-05-17 16:14:00,
2013-05-17 12:19:00,84.7,54.9,30.03,West,280,2.2,2.2,36,0.00,,CLR,0.00,VWS V14.00,2013-05-17 16:19:00,
2013-05-17 12:24:00,86.4,56.3,30.00,SW,230,3.1,4.9,36,0.00,,CLR,0.00,VWS V14.00,2013-05-17 16:24:00,
2013-05-17 12:29:00,88.2,56.3,30.00,SSE,159,2.7,6.3,34,0.00,,CLR,0.00,VWS V14.00,2013-05-17 16:29:00,
2013-05-17 12:35:00,89.6,55.0,30.00,NE,49,2.7,6.3,31,0.00,,CLR,0.00,VWS V14.00,2013-05-17 16:35:00,
2013-05-17 12:40:00,90.9,57.0,30.00,SSE,157,4.0,4.0,32,0.00,,CLR,0.00,VWS V14.00,2013-05-17 16:40:00,
2013-05-17 12:45:00,91.2,55.5,30.00,North,0,0.0,5.4,30,0.00,,CLR,0.00,VWS V14.00,2013-05-17 16:45:00,
2013-05-17 12:50:00,91.2,55.5,30.00,SE,134,3.1,5.4,30,0.00,,CLR,0.00,VWS V14.00,2013-05-17 16:50:00,
2013-05-17 12:55:00,91.8,55.0,30.00,ESE,106,3.6,4.0,29,0.00,,CLR,0.00,VWS V14.00,2013-05-17 16:55:00,
2013-05-17 13:00:00,91.9,54.2,30.00,SSW,207,0.0,4.0,28,0.00,,CLR,0.00,VWS V14.00,2013-05-17 17:00:00,
2013-05-17 13:05:00,91.8,55.0,30.00,SE,128,0.0,4.0,29,0.00,,CLR,0.00,VWS V14.00,2013-05-17 17:05:00,
2013-05-17 13:10:00,92.5,55.6,30.00,ESE,113,0.0,0.0,29,0.00,,SCT046,0.00,VWS V14.00,2013-05-17 17:10:00,
2013-05-17 13:15:00,92.5,54.7,30.00,NNE,15,2.7,3.1,28,0.00,,SCT046,0.00,VWS V14.00,2013-05-17 17:15:00,
2013-05-17 13:20:00,90.0,51.5,30.00,NNE,27,2.7,4.0,27,0.00,,SCT046,0.00,VWS V14.00,2013-05-17 17:20:00,
2013-05-17 13:25:00,88.3,51.1,30.00,SE,126,0.0,2.2,28,0.00,,SCT046,0.00,VWS V14.00,2013-05-17 17:25:00,
2013-05-17 13:30:00,87.1,51.0,30.00,NW,316,2.2,4.0,29,0.00,,SCT046,0.00,VWS V14.00,2013-05-17 17:30:00,
2013-05-17 13:35:00,86.7,51.6,30.00,NW,325,3.6,4.0,30,0.00,,SCT046,0.00,VWS V14.00,2013-05-17 17:35:00,
2013-05-17 13:40:00,88.5,54.1,30.00,West,272,3.6,4.5,31,0.00,,SCT046,0.00,VWS V14.00,2013-05-17 17:40:00,
2013-05-17 13:45:00,89.2,53.8,30.00,WSW,245,6.3,9.6,30,0.00,,SCT046,0.00,VWS V14.00,2013-05-17 17:45:00,
2013-05-17 13:50:00,90.5,55.8,30.00,NNW,345,0.0,9.6,31,0.00,,SCT046,0.00,VWS V14.00,2013-05-17 17:50:00,
2013-05-17 13:55:00,90.9,55.2,30.00,West,272,3.1,4.0,30,0.00,,SCT060,0.00,VWS V14.00,2013-05-17 17:55:00,
2013-05-17 14:00:00,91.0,55.3,30.00,NNE,17,2.2,6.3,30,0.00,,SCT060,0.00,VWS V14.00,2013-05-17 18:00:00,
2013-05-17 14:05:00,91.2,53.6,30.00,NNW,332,2.7,8.1,28,0.00,,SCT060,0.00,VWS V14.00,2013-05-17 18:05:00,
2013-05-17 14:10:00,89.6,52.2,30.00,WNW,290,3.1,4.0,28,0.00,,BKN070,0.00,VWS V14.00,2013-05-17 18:10:00,
2013-05-17 14:15:00,88.7,52.4,30.00,SSE,154,2.7,4.5,29,0.00,,BKN070,0.00,VWS V14.00,2013-05-17 18:15:00,
2013-05-17 14:20:00,88.9,53.5,30.00,SE,136,5.4,5.4,30,0.00,,BKN070,0.00,VWS V14.00,2013-05-17 18:20:00,
2013-05-17 14:25:00,90.0,54.4,29.97,SE,146,4.0,5.4,30,0.00,,BKN070,0.00,VWS V14.00,2013-05-17 18:25:00,
2013-05-17 14:30:00,91.2,53.6,29.97,NE,39,0.0,5.4,28,0.00,,BKN070,0.00,VWS V14.00,2013-05-17 18:30:00,
2013-05-17 14:35:00,91.4,51.7,29.97,NW,319,0.0,5.4,26,0.00,,BKN070,0.00,VWS V14.00,2013-05-17 18:35:00,
2013-05-17 14:40:00,90.5,52.0,29.97,NNW,329,0.0,0.0,27,0.00,,BKN070,0.00,VWS V14.00,2013-05-17 18:40:00,
2013-05-17 14:45:00,89.2,51.9,29.97,NNE,28,5.8,5.8,28,0.00,,BKN070,0.00,VWS V14.00,2013-05-17 18:45:00,
2013-05-17 14:50:00,89.1,51.8,29.97,NE,50,3.1,5.8,28,0.00,,BKN070,0.00,VWS V14.00,2013-05-17 18:50:00,
2013-05-17 14:55:00,89.2,49.9,29.97,West,272,0.0,0.0,26,0.00,,CLR,0.00,VWS V14.00,2013-05-17 18:55:00,
2013-05-17 15:00:00,89.2,49.9,29.97,NNW,344,5.8,5.8,26,0.00,,CLR,0.00,VWS V14.00,2013-05-17 19:00:00,
2013-05-17 15:05:00,88.2,47.9,29.97,SSE,154,4.0,6.3,25,0.00,,CLR,0.00,VWS V14.00,2013-05-17 19:05:00,
2013-05-17 15:10:00,88.3,51.1,29.97,SSE,152,5.8,5.8,28,0.00,,CLR,0.00,VWS V14.00,2013-05-17 19:10:00,
2013-05-17 15:15:00,89.6,51.2,29.97,NNE,25,0.0,5.8,27,0.00,,CLR,0.00,VWS V14.00,2013-05-17 19:15:00,
2013-05-17 15:20:00,90.0,51.5,29.97,ESE,120,3.6,5.8,27,0.00,,CLR,0.00,VWS V14.00,2013-05-17 19:20:00,
2013-05-17 15:25:00,89.2,51.9,29.97,ESE,110,2.7,2.7,28,0.00,,CLR,0.00,VWS V14.00,2013-05-17 19:25:00,
2013-05-17 15:30:00,90.1,51.7,29.97,South,170,3.1,8.7,27,0.00,,CLR,0.00,VWS V14.00,2013-05-17 19:30:00,
2013-05-17 15:35:00,91.2,52.6,29.97,SE,128,2.7,8.7,27,0.00,,CLR,0.00,VWS V14.00,2013-05-17 19:35:00,
2013-05-17 15:40:00,90.1,49.6,29.97,SE,135,2.7,2.7,25,0.00,,CLR,0.00,VWS V14.00,2013-05-17 19:40:00,
2013-05-17 15:45:00,88.9,46.3,29.97,NNW,336,0.0,5.8,23,0.00,,CLR,0.00,VWS V14.00,2013-05-17 19:45:00,
2013-05-17 15:50:00,87.4,46.2,29.97,NNW,330,3.1,5.8,24,0.00,,CLR,0.00,VWS V14.00,2013-05-17 19:50:00,
2013-05-17 15:55:00,87.1,46.0,29.97,North,0,0.0,0.0,24,0.00,,BKN075,0.00,VWS V14.00,2013-05-17 19:55:00,
2013-05-17 16:00:00,87.6,48.5,29.97,SE,141,0.0,3.6,26,0.00,,BKN075,0.00,VWS V14.00,2013-05-17 20:00:00,
2013-05-17 16:05:00,88.7,47.3,29.97,SSE,154,2.7,4.0,24,0.00,,BKN075,0.00,VWS V14.00,2013-05-17 20:05:00,
2013-05-17 16:10:00,89.4,52.1,29.97,East,84,3.6,3.6,28,0.00,,SCT075,0.00,VWS V14.00,2013-05-17 20:10:00,
2013-05-17 16:15:00,90.0,49.5,29.97,ENE,68,2.7,4.5,25,0.00,,SCT075,0.00,VWS V14.00,2013-05-17 20:15:00,
2013-05-17 16:20:00,90.1,49.6,29.97,ESE,105,2.7,5.4,25,0.00,,SCT075,0.00,VWS V14.00,2013-05-17 20:20:00,
2013-05-17 16:25:00,90.3,49.8,29.97,East,86,3.1,5.8,25,0.00,,SCT075,0.00,VWS V14.00,2013-05-17 20:25:00,
2013-05-17 16:30:00,90.3,46.3,29.97,East,100,0.0,5.8,22,0.00,,SCT075,0.00,VWS V14.00,2013-05-17 20:30:00,
2013-05-17 16:35:00,90.3,46.3,29.97,NE,45,2.2,5.8,22,0.00,,SCT075,0.00,VWS V14.00,2013-05-17 20:35:00,
2013-05-17 16:40:00,90.3,47.5,29.97,SE,129,0.0,3.1,23,0.00,,SCT075,0.00,VWS V14.00,2013-05-17 20:40:00,
2013-05-17 16:46:00,90.5,46.5,29.97,NNE,12,4.0,4.9,22,0.00,,SCT075,0.00,VWS V14.00,2013-05-17 20:46:00,
2013-05-17 16:51:00,90.5,45.3,29.97,ESE,117,2.7,4.9,21,0.00,,SCT075,0.00,VWS V14.00,2013-05-17 20:51:00,
2013-05-17 16:56:00,90.3,45.1,29.97,NE,49,0.0,3.6,21,0.00,,SCT075,0.00,VWS V14.00,2013-05-17 20:56:00,
2013-05-17 17:01:00,90.0,46.1,29.97,ESE,110,2.7,3.6,22,0.00,,SCT075,0.00,VWS V14.00,2013-05-17 21:01:00,
2013-05-17 17:06:00,90.1,48.5,29.97,ESE,106,2.7,8.1,24,0.00,,SCT075,0.00,VWS V14.00,2013-05-17 21:06:00,
2013-05-17 17:11:00,90.0,48.4,29.97,SSE,153,5.4,5.4,24,0.00,,SCT070,0.00,VWS V14.00,2013-05-17 21:11:00,
2013-05-17 17:16:00,90.1,49.6,29.97,ESE,119,0.0,5.8,25,0.00,,SCT070,0.00,VWS V14.00,2013-05-17 21:16:00,
2013-05-17 17:21:00,90.1,48.5,29.97,ESE,102,2.2,6.3,24,0.00,,SCT070,0.00,VWS V14.00,2013-05-17 21:21:00,
2013-05-17 17:26:00,90.1,48.5,29.94,ESE,123,4.0,4.5,24,0.00,,SCT070,0.00,VWS V14.00,2013-05-17 21:26:00,
2013-05-17 17:31:00,89.8,49.3,29.94,SE,135,0.0,6.3,25,0.00,,SCT070,0.00,VWS V14.00,2013-05-17 21:31:00,
2013-05-17 17:36:00,89.4,46.8,29.94,ENE,60,2.7,6.3,23,0.00,,SCT070,0.00,VWS V14.00,2013-05-17 21:36:00,
2013-05-17 17:41:00,88.9,45.2,29.94,East,94,3.6,3.6,22,0.00,,SCT070,0.00,VWS V14.00,2013-05-17 21:41:00,
2013-05-17 17:46:00,88.3,47.0,29.94,East,100,3.1,4.0,24,0.00,,SCT070,0.00,VWS V14.00,2013-05-17 21:46:00,
2013-05-17 17:51:00,88.0,47.8,29.94,East,82,0.0,4.0,25,0.00,,SCT070,0.00,VWS V14.00,2013-05-17 21:51:00,
2013-05-17 17:56:00,87.6,48.5,29.94,ENE,60,2.7,3.1,26,0.00,,CLR,0.00,VWS V14.00,2013-05-17 21:56:00,
2013-05-17 18:01:00,87.4,46.2,29.94,SE,135,0.0,3.1,24,0.00,,CLR,0.00,VWS V14.00,2013-05-17 22:01:00,
2013-05-17 18:06:00,87.1,46.0,29.94,SSE,168,0.0,3.1,24,0.00,,CLR,0.00,VWS V14.00,2013-05-17 22:06:00,
2013-05-17 18:11:00,87.1,48.1,29.94,ESE,123,0.0,0.0,26,0.00,,SCT070,0.00,VWS V14.00,2013-05-17 22:11:00,
2013-05-17 18:16:00,87.1,48.1,29.94,ESE,119,2.7,2.7,26,0.00,,SCT070,0.00,VWS V14.00,2013-05-17 22:16:00,
2013-05-17 18:21:00,87.3,47.2,29.94,ESE,118,0.0,2.7,25,0.00,,SCT070,0.00,VWS V14.00,2013-05-17 22:21:00,
2013-05-17 18:26:00,87.3,48.2,29.94,East,97,0.0,0.0,26,0.00,,SCT070,0.00,VWS V14.00,2013-05-17 22:26:00,
2013-05-17 18:31:00,87.1,48.1,29.94,SE,126,0.0,4.0,26,0.00,,SCT070,0.00,VWS V14.00,2013-05-17 22:31:00,
2013-05-17 18:36:00,87.1,48.1,29.94,ESE,109,2.7,4.9,26,0.00,,SCT070,0.00,VWS V14.00,2013-05-17 22:36:00,
2013-05-17 18:41:00,86.9,46.9,29.94,SE,133,2.7,3.1,25,0.00,,SCT070,0.00,VWS V14.00,2013-05-17 22:41:00,
2013-05-17 18:46:00,86.5,46.6,29.94,ESE,115,2.7,5.8,25,0.00,,SCT070,0.00,VWS V14.00,2013-05-17 22:46:00,
2013-05-17 18:51:00,86.4,45.3,29.94,ESE,120,3.1,6.7,24,0.00,,SCT070,0.00,VWS V14.00,2013-05-17 22:51:00,
2013-05-17 18:56:00,86.0,46.1,29.94,East,99,0.0,0.0,25,0.00,,CLR,0.00,VWS V14.00,2013-05-17 22:56:00,
2013-05-17 19:01:00,85.6,45.8,29.94,ESE,109,0.0,5.4,25,0.00,,CLR,0.00,VWS V14.00,2013-05-17 23:01:00,
2013-05-17 19:06:00,85.3,45.5,29.94,East,84,3.1,5.4,25,0.00,,CLR,0.00,VWS V14.00,2013-05-17 23:06:00,
2013-05-17 19:11:00,85.1,46.4,29.94,SE,124,0.0,0.0,26,0.00,,CLR,0.00,VWS V14.00,2013-05-17 23:11:00,
2013-05-17 19:16:00,84.7,46.1,29.94,ESE,105,0.0,0.0,26,0.00,,CLR,0.00,VWS V14.00,2013-05-17 23:16:00,
2013-05-17 19:21:00,84.6,46.9,29.94,ESE,111,0.0,0.0,27,0.00,,CLR,0.00,VWS V14.00,2013-05-17 23:21:00,
2013-05-17 19:26:00,84.4,46.8,29.94,ESE,122,0.0,0.0,27,0.00,,CLR,0.00,VWS V14.00,2013-05-17 23:26:00,
2013-05-17 19:31:00,83.8,48.2,29.94,SSE,153,0.0,0.0,29,0.00,,CLR,0.00,VWS V14.00,2013-05-17 23:31:00,
2013-05-17 19:36:00,83.7,49.0,29.97,West,279,3.6,5.4,30,0.00,,CLR,0.00,VWS V14.00,2013-05-17 23:36:00,
2013-05-17 19:41:00,82.9,50.1,29.97,West,275,3.6,5.4,32,0.00,,CLR,0.00,VWS V14.00,2013-05-17 23:41:00,
2013-05-17 19:46:00,82.2,51.9,29.97,West,278,4.0,5.4,35,0.00,,CLR,0.00,VWS V14.00,2013-05-17 23:46:00,
2013-05-17 19:51:00,81.9,53.1,29.97,West,281,0.0,5.4,37,0.00,,CLR,0.00,VWS V14.00,2013-05-17 23:51:00,
2013-05-17 19:56:00,81.5,53.5,29.97,West,270,4.0,4.0,38,0.00,,BKN080,0.00,VWS V14.00,2013-05-17 23:56:00,
2013-05-17 20:01:00,81.3,54.0,29.97,West,281,0.0,4.9,39,0.00,,BKN080,0.00,VWS V14.00,2013-05-18 00:01:00,
2013-05-17 20:06:00,80.8,54.2,29.97,West,276,3.1,4.9,40,0.00,,BKN080,0.00,VWS V14.00,2013-05-18 00:06:00,
2013-05-17 20:11:00,80.4,54.6,29.97,NW,308,0.0,5.4,41,0.00,,BKN080,0.00,VWS V14.00,2013-05-18 00:11:00,
2013-05-17 20:16:00,80.1,54.9,29.97,West,276,2.2,5.4,42,0.00,,BKN080,0.00,VWS V14.00,2013-05-18 00:16:00,
2013-05-17 20:21:00,79.7,54.6,29.97,WNW,295,0.0,5.4,42,0.00,,BKN080,0.00,VWS V14.00,2013-05-18 00:21:00,
2013-05-17 20:26:00,79.5,55.1,29.97,WNW,295,0.0,0.0,43,0.00,,CLR,0.00,VWS V14.00,2013-05-18 00:26:00,
2013-05-17 20:31:00,79.3,55.6,29.97,WNW,295,0.0,0.0,44,0.00,,CLR,0.00,VWS V14.00,2013-05-18 00:31:00,
2013-05-17 20:36:00,79.0,55.2,29.97,WNW,295,0.0,0.0,44,0.00,,CLR,0.00,VWS V14.00,2013-05-18 00:36:00,
2013-05-17 20:41:00,78.4,55.4,29.97,WNW,295,0.0,0.0,45,0.00,,CLR,0.00,VWS V14.00,2013-05-18 00:41:00,
2013-05-17 20:46:00,77.9,55.5,29.97,WNW,295,0.0,0.0,46,0.00,,CLR,0.00,VWS V14.00,2013-05-18 00:46:00,
2013-05-17 20:51:00,77.7,56.5,29.97,WNW,295,0.0,0.0,48,0.00,,CLR,0.00,VWS V14.00,2013-05-18 00:51:00,
2013-05-17 20:56:00,77.7,57.6,29.97,WNW,295,0.0,0.0,50,0.00,,CLR,0.00,VWS V14.00,2013-05-18 00:56:00,
2013-05-17 21:02:00,77.5,58.0,29.97,North,357,0.0,0.0,51,0.00,,CLR,0.00,VWS V14.00,2013-05-18 01:02:00,
2013-05-17 21:06:00,77.5,58.5,30.00,NNE,22,0.0,2.7,52,0.00,,CLR,0.00,VWS V14.00,2013-05-18 01:06:00,
2013-05-17 21:11:00,77.9,58.9,30.00,NNW,341,2.7,2.7,52,0.00,,CLR,0.00,VWS V14.00,2013-05-18 01:11:00,
2013-05-17 21:16:00,78.1,58.5,30.00,ESE,116,2.2,3.6,51,0.00,,CLR,0.00,VWS V14.00,2013-05-18 01:16:00,
2013-05-17 21:21:00,78.4,58.8,30.00,SSE,152,0.0,4.0,51,0.00,,CLR,0.00,VWS V14.00,2013-05-18 01:21:00,
2013-05-17 21:27:00,78.8,58.6,30.00,SSE,155,0.0,0.0,50,0.00,,CLR,0.00,VWS V14.00,2013-05-18 01:27:00,
2013-05-17 21:32:00,79.2,58.9,30.00,NE,49,3.1,6.7,50,0.00,,CLR,0.00,VWS V14.00,2013-05-18 01:32:00,
2013-05-17 21:37:00,79.2,60.0,30.00,ESE,115,3.6,6.7,52,0.00,,CLR,0.00,VWS V14.00,2013-05-18 01:37:00,
2013-05-17 21:42:00,79.2,60.6,30.00,SE,134,0.0,0.0,53,0.00,,CLR,0.00,VWS V14.00,2013-05-18 01:42:00,
2013-05-17 21:47:00,79.0,60.9,30.00,East,93,2.7,3.6,54,0.00,,CLR,0.00,VWS V14.00,2013-05-18 01:47:00,
2013-05-17 21:52:00,78.8,61.8,30.00,East,89,2.7,6.3,56,0.00,,CLR,0.00,VWS V14.00,2013-05-18 01:52:00,
2013-05-17 21:57:00,78.6,61.6,30.00,ESE,105,2.7,3.6,56,0.00,,CLR,0.00,VWS V14.00,2013-05-18 01:57:00,
2013-05-17 22:02:00,78.6,61.6,30.00,ESE,112,2.2,4.0,56,0.00,,CLR,0.00,VWS V14.00,2013-05-18 02:02:00,
2013-05-17 22:07:00,78.4,62.0,30.00,ESE,118,0.0,4.0,57,0.00,,CLR,0.00,VWS V14.00,2013-05-18 02:07:00,
2013-05-17 22:12:00,78.3,61.8,30.00,ENE,77,2.2,3.6,57,0.00,,CLR,0.00,VWS V14.00,2013-05-18 02:12:00,
2013-05-17 22:17:00,78.1,62.1,30.00,SE,125,0.0,4.0,58,0.00,,CLR,0.00,VWS V14.00,2013-05-18 02:17:00,
2013-05-17 22:22:00,77.9,62.4,30.00,ENE,72,3.6,6.3,59,0.00,,CLR,0.00,VWS V14.00,2013-05-18 02:22:00,
2013-05-17 22:27:00,77.7,62.3,30.00,SE,138,4.0,5.8,59,0.00,,CLR,0.00,VWS V14.00,2013-05-18 02:27:00,
2013-05-17 22:32:00,77.5,62.1,30.00,SE,130,5.8,5.8,59,0.00,,CLR,0.00,VWS V14.00,2013-05-18 02:32:00,
2013-05-17 22:37:00,77.4,62.4,30.03,ESE,112,3.1,5.8,60,0.00,,CLR,0.00,VWS V14.00,2013-05-18 02:37:00,
2013-05-17 22:42:00,77.4,62.4,30.03,ESE,108,3.1,5.8,60,0.00,,CLR,0.00,VWS V14.00,2013-05-18 02:42:00,
2013-05-17 22:47:00,77.2,62.2,30.03,SE,142,2.7,5.8,60,0.00,,CLR,0.00,VWS V14.00,2013-05-18 02:47:00,
2013-05-17 22:52:00,77.2,62.2,30.03,SSE,150,3.1,5.8,60,0.00,,CLR,0.00,VWS V14.00,2013-05-18 02:52:00,
2013-05-17 22:57:00,77.0,62.5,30.03,SE,140,2.7,3.1,61,0.00,,BKN050,0.00,VWS V14.00,2013-05-18 02:57:00,
2013-05-17 23:02:00,76.8,62.4,30.03,East,80,2.7,4.9,61,0.00,,BKN050,0.00,VWS V14.00,2013-05-18 03:02:00,
2013-05-17 23:07:00,76.8,62.4,30.03,East,98,2.2,4.9,61,0.00,,BKN050,0.00,VWS V14.00,2013-05-18 03:07:00,
2013-05-17 23:12:00,76.6,62.2,30.03,East,86,0.0,0.0,61,0.00,,OVC050,0.00,VWS V14.00,2013-05-18 03:12:00,
2013-05-17 23:17:00,76.5,62.5,30.03,ESE,113,0.0,4.0,62,0.00,,OVC050,0.00,VWS V14.00,2013-05-18 03:17:00,
2013-05-17 23:22:00,76.5,62.5,30.03,SE,137,2.7,4.0,62,0.00,,OVC050,0.00,VWS V14.00,2013-05-18 03:22:00,
2013-05-17 23:27:00,76.3,62.3,30.03,SSE,148,0.0,0.0,62,0.00,,OVC050,0.00,VWS V14.00,2013-05-18 03:27:00,
2013-05-17 23:32:00,76.1,62.6,30.03,ESE,104,0.0,0.0,63,0.00,,OVC050,0.00,VWS V14.00,2013-05-18 03:32:00,
2013-05-17 23:37:00,75.9,62.4,30.03,SE,129,0.0,0.0,63,0.00,,OVC050,0.00,VWS V14.00,2013-05-18 03:37:00,
2013-05-17 23:42:00,75.9,62.4,30.03,ESE,114,0.0,0.0,63,0.00,,OVC050,0.00,VWS V14.00,2013-05-18 03:42:00,
2013-05-17 23:47:00,75.6,62.1,30.03,SSE,153,0.0,0.0,63,0.00,,OVC050,0.00,VWS V14.00,2013-05-18 03:47:00,
2013-05-17 23:52:00,75.4,62.4,30.03,ENE,73,0.0,0.0,64,0.00,,OVC050,0.00,VWS V14.00,2013-05-18 03:52:00,
2013-05-17 23:57:00,75.2,62.6,30.03,ENE,75,0.0,0.0,65,0.00,,OVC060,0.00,VWS V14.00,2013-05-18 03:57:00,